Time;durP1;ratioP1;P1;durP2;ratioP2;P2;SDS_P1;SDS_P2;PMS_P1;PMS_P2;Temp;Humidity;BMP_temperature;BMP_pressure;BME280_temperature;BME280_humidity;BME280_pressure;Samples;Min_cycle;Max_cycle;Signal;HPM_P1;HPM_P2
2023/05/25 00:01:34;;;;;;;;;5.33;4.00;;;;;19.61;71.48;101972.53;5037608;28;61448;-79
2023/05/25 00:04:02;;;;;;;;;5.00;5.00;;;;;19.58;71.16;101964.47;5003449;28;45524;-83
2023/05/25 00:06:28;;;;;;;;;7.00;5.00;;;;;19.53;71.60;101965.41;5017225;28;45222;-82
2023/05/25 00:08:56;;;;;;;;;9.67;6.00;;;;;19.48;70.60;101962.78;5038229;28;45494;-83
2023/05/25 00:11:22;;;;;;;;;3.33;3.33;;;;;19.43;70.14;101961.91;5018868;28;45428;-81
2023/05/25 00:13:48;;;;;;;;;6.00;4.33;;;;;19.35;70.71;101966.47;5032516;28;45350;-80
2023/05/25 00:16:13;;;;;;;;;7.67;5.33;;;;;19.30;71.04;101973.63;5032760;28;48460;-86
2023/05/25 00:18:39;;;;;;;;;7.00;3.00;;;;;19.26;71.58;101961.16;5019945;28;45488;-80
2023/05/25 00:21:05;;;;;;;;;9.33;7.33;;;;;19.23;72.26;101959.41;5038278;28;45303;-84
2023/05/25 00:23:31;;;;;;;;;10.33;7.00;;;;;19.21;72.92;101968.31;5019258;28;45588;-79
2023/05/25 00:25:56;;;;;;;;;4.67;4.67;;;;;19.17;72.76;101961.22;5030319;28;46358;-83
2023/05/25 00:28:21;;;;;;;;;7.33;6.67;;;;;19.15;73.16;101965.69;5031021;28;61443;-81
2023/05/25 00:30:47;;;;;;;;;5.33;5.33;;;;;19.10;72.72;101958.56;5035194;28;59447;-80
2023/05/25 00:33:12;;;;;;;;;7.00;6.00;;;;;19.07;73.15;101963.09;5027727;28;45610;-84
2023/05/25 00:35:38;;;;;;;;;7.67;6.00;;;;;19.05;73.22;101964.84;5033574;28;46340;-80
2023/05/25 00:38:03;;;;;;;;;9.67;6.00;;;;;19.01;73.23;101960.41;5035850;28;67339;-81
2023/05/25 00:40:28;;;;;;;;;5.00;5.00;;;;;18.95;73.72;101961.34;5014750;28;45573;-79
2023/05/25 00:42:54;;;;;;;;;8.33;6.00;;;;;18.92;74.17;101965.84;5018619;28;53320;-80
2023/05/25 00:45:20;;;;;;;;;8.00;5.00;;;;;18.87;74.04;101959.63;5003002;28;47841;-83
2023/05/25 00:47:50;;;;;;;;;9.00;6.00;;;;;18.80;74.46;101956.06;5013876;28;45695;-83
2023/05/25 00:50:18;;;;;;;;;6.00;6.00;;;;;18.75;74.53;101957.88;5036145;28;45265;-83
2023/05/25 00:52:43;;;;;;;;;8.33;6.00;;;;;18.70;74.77;101963.28;5033480;28;45241;-79
2023/05/25 00:55:10;;;;;;;;;8.67;6.33;;;;;18.64;74.86;101957.88;5036437;28;45844;-83
2023/05/25 00:57:36;;;;;;;;;8.00;8.00;;;;;18.60;75.27;101964.16;5019771;28;45612;-83
2023/05/25 01:00:04;;;;;;;;;7.00;7.00;;;;;18.55;75.26;101966.84;5037120;28;45330;-85
2023/05/25 01:02:29;;;;;;;;;10.00;6.00;;;;;18.52;75.54;101963.28;5019706;28;45367;-79
2023/05/25 01:04:58;;;;;;;;;7.33;6.67;;;;;18.49;75.75;101968.69;5036607;28;46812;-84
2023/05/25 01:07:25;;;;;;;;;8.00;8.00;;;;;18.44;76.00;101963.34;5037457;28;45485;-80
2023/05/25 01:09:57;;;;;;;;;10.00;10.00;;;;;18.41;76.02;101957.09;5026781;28;45411;-81
2023/05/25 01:12:26;;;;;;;;;10.00;7.00;;;;;18.36;76.23;101958.91;5035097;28;45453;-79
2023/05/25 01:14:52;;;;;;;;;10.33;5.33;;;;;18.30;76.29;101954.47;5014069;28;48330;-81
2023/05/25 01:17:19;;;;;;;;;7.00;7.00;;;;;18.27;76.31;101962.50;5033137;28;46033;-79
2023/05/25 01:19:46;;;;;;;;;10.33;8.67;;;;;18.24;76.12;101965.16;5033145;28;45440;-85
2023/05/25 01:22:23;;;;;;;;;10.00;8.33;;;;;18.19;76.55;101962.50;5033609;28;45421;-80
2023/05/25 01:25:01;;;;;;;;;7.00;7.00;;;;;18.14;76.62;101950.94;5019497;28;46032;-79
2023/05/25 01:27:37;;;;;;;;;4.00;4.00;;;;;18.11;77.04;101953.63;5019001;28;45553;-79
2023/05/25 01:30:05;;;;;;;;;8.00;8.00;;;;;18.06;77.09;101953.63;5012568;28;45347;-80
2023/05/25 01:32:31;;;;;;;;;9.33;8.67;;;;;18.03;77.09;101953.63;5018264;28;45566;-79
2023/05/25 01:34:57;;;;;;;;;11.00;10.00;;;;;18.00;77.06;101952.72;5019256;28;45384;-79
2023/05/25 01:37:25;;;;;;;;;10.00;10.00;;;;;17.97;77.10;101963.44;5017879;28;45509;-81
2023/05/25 01:39:50;;;;;;;;;8.00;8.00;;;;;17.96;77.22;101967.03;5023011;28;45575;-79
2023/05/25 01:42:15;;;;;;;;;9.67;8.00;;;;;17.93;77.22;101962.56;5036321;28;45469;-79
2023/05/25 01:44:41;;;;;;;;;15.00;9.67;;;;;17.93;77.08;101969.69;5027132;28;68381;-84
2023/05/25 01:47:21;;;;;;;;;10.67;9.67;;;;;17.90;77.42;101965.25;5035824;28;67740;-79
2023/05/25 01:50:13;;;;;;;;;10.00;8.67;;;;;17.88;77.21;101967.00;5034066;28;45520;-83
2023/05/25 01:52:43;;;;;;;;;10.33;8.67;;;;;17.83;77.22;101973.25;5008490;28;45634;-83
2023/05/25 01:55:11;;;;;;;;;8.33;6.00;;;;;17.80;77.35;101967.03;5013520;28;47414;-80
2023/05/25 01:57:40;;;;;;;;;13.00;10.00;;;;;17.76;77.36;101969.69;5015399;28;45622;-80
2023/05/25 02:00:12;;;;;;;;;12.00;9.00;;;;;17.74;77.32;101976.84;5015997;28;45341;-80
2023/05/25 02:02:39;;;;;;;;;11.67;10.00;;;;;17.71;77.28;101963.44;5012533;28;45388;-80
2023/05/25 02:05:05;;;;;;;;;10.67;9.00;;;;;17.70;77.34;101975.00;5028079;28;45452;-80
2023/05/25 02:07:30;;;;;;;;;13.33;9.33;;;;;17.69;77.07;101978.59;5033496;28;45462;-79
2023/05/25 02:09:56;;;;;;;;;14.00;9.00;;;;;17.67;77.25;101969.66;5020985;28;64442;-79
2023/05/25 02:12:21;;;;;;;;;10.33;8.67;;;;;17.65;77.37;101975.00;5037150;28;45990;-79
2023/05/25 02:14:47;;;;;;;;;10.00;8.33;;;;;17.63;77.33;101973.22;5017376;28;45755;-79
2023/05/25 02:17:13;;;;;;;;;8.00;7.67;;;;;17.60;77.52;101973.22;5035937;28;45130;-81
2023/05/25 02:19:39;;;;;;;;;6.33;6.00;;;;;17.58;77.68;101975.91;5030630;28;45280;-79
2023/05/25 02:22:04;;;;;;;;;12.00;8.67;;;;;17.56;77.57;101975.00;5031195;28;54971;-83
2023/05/25 02:24:30;;;;;;;;;8.67;8.67;;;;;17.51;77.51;101972.31;5005226;28;48475;-81
2023/05/25 02:26:55;;;;;;;;;10.00;8.67;;;;;17.50;77.62;101977.66;5018242;28;45606;-79
2023/05/25 02:29:20;;;;;;;;;12.00;10.00;;;;;17.47;77.83;101985.66;5004214;28;46000;-84
2023/05/25 02:31:46;;;;;;;;;8.67;7.67;;;;;17.44;77.77;101985.69;5036156;28;45499;-80
2023/05/25 02:34:12;;;;;;;;;9.00;8.00;;;;;17.43;78.02;101989.25;5033749;28;47413;-84
2023/05/25 02:36:38;;;;;;;;;9.33;9.00;;;;;17.39;77.92;101990.13;5018282;28;45467;-82
2023/05/25 02:39:03;;;;;;;;;9.00;7.67;;;;;17.38;78.05;101997.25;5037255;28;45517;-82
2023/05/25 02:41:29;;;;;;;;;11.67;10.00;;;;;17.35;77.88;101997.22;5017051;28;45341;-84
2023/05/25 02:43:54;;;;;;;;;9.67;7.33;;;;;17.33;78.25;102003.47;5033266;28;45920;-82
2023/05/25 02:46:21;;;;;;;;;10.33;9.00;;;;;17.32;78.33;102001.69;5015300;28;46151;-83
2023/05/25 02:48:46;;;;;;;;;8.33;8.33;;;;;17.29;78.48;102003.44;5035008;28;45510;-79
2023/05/25 02:51:12;;;;;;;;;8.00;7.00;;;;;17.29;78.35;102008.78;5031763;28;45363;-79
2023/05/25 02:53:37;;;;;;;;;9.33;9.33;;;;;17.29;78.52;102018.56;5034811;28;46013;-79
2023/05/25 02:56:09;;;;;;;;;6.67;6.67;;;;;17.29;78.69;102019.47;5035132;28;45532;-85
2023/05/25 02:58:34;;;;;;;;;9.00;8.33;;;;;17.29;78.64;102005.22;5018453;28;45595;-79
2023/05/25 03:01:00;;;;;;;;;11.00;7.67;;;;;17.32;78.74;102013.25;5032530;28;45309;-79
2023/05/25 03:03:26;;;;;;;;;6.33;5.33;;;;;17.32;78.69;102020.38;5017383;28;45674;-79
2023/05/25 03:05:52;;;;;;;;;11.00;8.00;;;;;17.31;78.73;102015.91;5033095;28;45531;-82
2023/05/25 03:08:17;;;;;;;;;10.00;10.00;;;;;17.31;78.55;102021.25;5034738;28;45533;-80
2023/05/25 03:10:44;;;;;;;;;9.33;7.33;;;;;17.27;78.65;102021.25;5017993;28;45193;-79
2023/05/25 03:13:09;;;;;;;;;8.00;8.00;;;;;17.25;78.89;102023.00;5038425;28;45269;-79
2023/05/25 03:15:35;;;;;;;;;13.00;8.00;;;;;17.22;79.20;102015.00;5028622;28;68039;-80
2023/05/25 03:18:00;;;;;;;;;9.00;7.67;;;;;17.18;79.25;102015.00;5031257;28;45527;-82
2023/05/25 03:20:26;;;;;;;;;9.33;8.67;;;;;17.18;78.96;102015.88;5035502;28;45468;-79
2023/05/25 03:22:51;;;;;;;;;9.33;7.33;;;;;17.14;79.19;102008.75;5035513;28;47594;-79
2023/05/25 03:25:17;;;;;;;;;9.00;8.00;;;;;17.12;79.24;102022.97;5033338;28;46304;-79
2023/05/25 03:27:42;;;;;;;;;10.00;10.00;;;;;17.08;79.21;102019.41;5033608;28;60572;-78
2023/05/25 03:30:08;;;;;;;;;9.67;6.00;;;;;17.06;79.61;102025.63;5028141;28;60985;-79
2023/05/25 03:32:33;;;;;;;;;13.67;7.00;;;;;17.03;79.81;102022.06;5034240;28;48711;-79
2023/05/25 03:34:58;;;;;;;;;12.67;9.00;;;;;17.03;79.77;102032.72;5034151;28;65659;-79
2023/05/25 03:37:24;;;;;;;;;7.33;7.33;;;;;17.01;79.64;102033.63;5018415;28;64028;-79
2023/05/25 03:39:49;;;;;;;;;6.00;5.33;;;;;16.99;79.72;102043.38;5037614;28;45548;-79
2023/05/25 03:42:14;;;;;;;;;9.67;8.00;;;;;16.98;80.05;102038.94;5033085;28;47453;-83
2023/05/25 03:44:40;;;;;;;;;10.67;7.33;;;;;16.94;80.14;102039.84;5035414;28;69674;-79
2023/05/25 03:47:05;;;;;;;;;10.33;7.67;;;;;16.92;80.31;102044.25;5016536;28;59102;-82
2023/05/25 03:49:31;;;;;;;;;11.00;7.33;;;;;16.88;80.47;102047.78;5024890;28;45479;-82
2023/05/25 03:51:58;;;;;;;;;6.67;6.67;;;;;16.87;80.23;102046.91;5033068;28;46437;-80
2023/05/25 03:54:24;;;;;;;;;7.67;7.00;;;;;16.86;80.45;102049.56;5035529;28;46015;-79
2023/05/25 03:56:49;;;;;;;;;9.00;7.00;;;;;16.81;80.72;102048.66;5031493;28;45598;-79
2023/05/25 03:59:15;;;;;;;;;9.00;7.33;;;;;16.81;80.55;102046.88;5016702;28;45499;-81
2023/05/25 04:01:40;;;;;;;;;7.00;6.00;;;;;16.77;80.44;102050.41;5036615;28;46650;-81
2023/05/25 04:04:05;;;;;;;;;9.00;9.00;;;;;16.77;80.78;102051.28;5019228;28;58406;-85
2023/05/25 04:06:31;;;;;;;;;14.33;8.33;;;;;16.72;80.92;102058.41;5032837;28;59992;-79
2023/05/25 04:09:00;;;;;;;;;9.00;8.00;;;;;16.70;80.85;102051.22;5040404;28;45506;-79
2023/05/25 04:11:26;;;;;;;;;10.33;6.33;;;;;16.71;80.90;102048.59;5032703;28;46819;-84
2023/05/25 04:13:51;;;;;;;;;10.00;9.00;;;;;16.68;80.91;102045.91;5024703;28;46087;-82
2023/05/25 04:16:17;;;;;;;;;11.00;8.00;;;;;16.68;81.08;102045.00;5034853;28;63862;-80
2023/05/25 04:18:42;;;;;;;;;8.00;8.00;;;;;16.67;81.05;102043.19;5036369;28;56281;-82
2023/05/25 04:21:07;;;;;;;;;7.00;7.00;;;;;16.65;81.23;102045.88;5033574;28;61409;-80
2023/05/25 04:23:33;;;;;;;;;9.67;7.00;;;;;16.64;80.88;102051.19;5031304;28;60972;-83
2023/05/25 04:25:59;;;;;;;;;12.00;8.00;;;;;16.63;81.05;102042.31;5032264;28;45460;-79
2023/05/25 04:28:26;;;;;;;;;9.00;8.00;;;;;16.61;81.37;102048.50;5017585;28;45720;-82
2023/05/25 04:30:55;;;;;;;;;6.67;5.67;;;;;16.63;81.50;102046.75;5035933;28;47571;-83
2023/05/25 04:33:21;;;;;;;;;8.33;7.00;;;;;16.59;81.49;102044.94;5033790;28;45652;-80
2023/05/25 04:35:47;;;;;;;;;9.67;7.00;;;;;16.58;81.82;102048.50;5022144;28;45345;-79
2023/05/25 04:38:16;;;;;;;;;10.00;8.67;;;;;16.56;81.75;102047.59;5037275;28;45435;-80
2023/05/25 04:40:42;;;;;;;;;8.00;7.67;;;;;16.54;81.91;102052.03;5028956;28;48391;-82
2023/05/25 04:43:08;;;;;;;;;11.67;8.00;;;;;16.54;81.86;102054.69;5016369;28;45469;-80
2023/05/25 04:45:34;;;;;;;;;8.67;8.00;;;;;16.52;82.07;102061.81;5011073;28;45490;-83
2023/05/25 04:48:00;;;;;;;;;11.67;7.00;;;;;16.53;81.77;102064.47;5031606;28;59778;-83
2023/05/25 04:50:25;;;;;;;;;11.33;7.33;;;;;16.52;82.11;102060.03;5031693;28;46609;-87
2023/05/25 04:52:51;;;;;;;;;9.67;9.33;;;;;16.52;82.50;102065.38;5017145;28;59343;-82
2023/05/25 04:55:16;;;;;;;;;9.33;7.33;;;;;16.53;82.70;102075.13;5024818;28;58805;-83
2023/05/25 04:57:41;;;;;;;;;8.00;6.33;;;;;16.52;82.22;102078.69;5027825;28;60015;-82
2023/05/25 05:00:09;;;;;;;;;9.33;7.00;;;;;16.50;82.59;102069.78;5019214;28;45684;-82
2023/05/25 05:02:35;;;;;;;;;10.33;9.67;;;;;16.51;82.30;102068.88;5030606;28;45430;-80
2023/05/25 05:05:00;;;;;;;;;10.00;9.00;;;;;16.52;82.21;102078.69;5027436;28;45504;-84
2023/05/25 05:07:25;;;;;;;;;11.25;10.00;;;;;16.51;82.41;102071.53;5014725;28;45644;-84
2023/05/25 05:09:51;;;;;;;;;10.00;8.67;;;;;16.53;82.38;102071.59;5019276;28;45925;-81
2023/05/25 05:12:16;;;;;;;;;11.00;8.50;;;;;16.53;82.30;102074.25;5021244;28;65809;-79
2023/05/25 05:14:41;;;;;;;;;9.00;7.00;;;;;16.55;82.75;102078.69;5022806;28;45426;-80
2023/05/25 05:17:07;;;;;;;;;9.00;7.33;;;;;16.56;82.56;102080.47;5017703;28;52304;-80
2023/05/25 05:19:32;;;;;;;;;10.50;7.00;;;;;16.56;82.76;102071.59;5023973;28;68138;-81
2023/05/25 05:21:58;;;;;;;;;9.00;7.00;;;;;16.58;82.43;102085.84;5013505;28;45655;-79
2023/05/25 05:24:23;;;;;;;;;9.33;9.33;;;;;16.58;82.80;102085.84;5013863;28;45511;-78
2023/05/25 05:26:49;;;;;;;;;13.00;9.33;;;;;16.58;82.94;102094.72;5132056;22;58833;-80
2023/05/25 05:29:15;;;;;;;;;9.00;8.00;;;;;16.57;82.84;102094.72;5011310;28;45922;-80
2023/05/25 05:31:41;;;;;;;;;12.75;10.50;;;;;16.54;82.57;102084.91;5014486;28;45540;-79
2023/05/25 05:34:06;;;;;;;;;15.25;11.75;;;;;16.59;82.92;102106.28;4991367;28;45595;-80
2023/05/25 05:36:32;;;;;;;;;10.00;8.67;;;;;16.59;82.85;102111.63;4993132;28;45243;-80
2023/05/25 05:38:57;;;;;;;;;11.67;10.00;;;;;16.61;82.96;102110.72;5008474;28;45613;-84
2023/05/25 05:41:23;;;;;;;;;8.25;7.00;;;;;16.62;83.37;102114.28;5012722;28;45469;-82
2023/05/25 05:43:48;;;;;;;;;11.00;9.33;;;;;16.62;82.58;102103.63;5005844;28;45378;-79
2023/05/25 05:46:13;;;;;;;;;11.00;8.67;;;;;16.60;82.92;102108.06;5007611;28;50662;-80
2023/05/25 05:48:39;;;;;;;;;12.00;8.00;;;;;16.61;82.69;102112.50;5009332;28;66683;-78
2023/05/25 05:51:04;;;;;;;;;10.75;9.50;;;;;16.58;82.81;102105.38;4991511;28;45487;-80
2023/05/25 05:53:31;;;;;;;;;11.00;9.33;;;;;16.60;82.79;102111.63;5012446;28;45199;-78
2023/05/25 05:55:58;;;;;;;;;11.67;8.67;;;;;16.60;82.57;102111.63;4999062;28;45474;-80
2023/05/25 05:58:25;;;;;;;;;12.00;8.00;;;;;16.61;82.68;102118.72;5014164;28;46611;-80
2023/05/25 06:00:52;;;;;;;;;10.00;10.00;;;;;16.63;82.85;102116.97;5009021;28;45519;-79
2023/05/25 06:03:17;;;;;;;;;8.33;8.33;;;;;16.66;82.89;102127.66;5008820;28;45503;-80
2023/05/25 06:05:43;;;;;;;;;10.00;8.00;;;;;16.67;82.88;102123.22;5014578;28;45375;-79
2023/05/25 06:08:09;;;;;;;;;11.00;8.67;;;;;16.66;82.33;102116.09;5006541;28;46815;-80
2023/05/25 06:10:34;;;;;;;;;10.33;9.00;;;;;16.67;82.52;102110.78;5013253;28;45736;-80
2023/05/25 06:13:00;;;;;;;;;11.33;9.00;;;;;16.67;82.32;102123.22;5014251;28;45540;-79
2023/05/25 06:15:25;;;;;;;;;12.33;9.33;;;;;16.68;82.90;102127.69;5009164;28;45579;-79
2023/05/25 06:17:50;;;;;;;;;9.67;9.00;;;;;16.68;82.64;102133.91;5008498;28;64531;-81
2023/05/25 06:20:16;;;;;;;;;11.00;9.33;;;;;16.70;83.24;102124.13;5008719;28;45550;-79
2023/05/25 06:22:41;;;;;;;;;15.00;10.00;;;;;16.72;83.18;102130.41;5001027;28;61692;-80
2023/05/25 06:25:09;;;;;;;;;12.67;10.00;;;;;16.75;83.49;102141.09;5003264;28;45677;-78
2023/05/25 06:27:34;;;;;;;;;13.67;11.33;;;;;16.76;83.02;102141.97;5006736;28;46651;-80
2023/05/25 06:30:00;;;;;;;;;8.33;8.33;;;;;16.78;82.83;102142.91;5006739;28;46630;-81
2023/05/25 06:32:25;;;;;;;;;9.33;9.33;;;;;16.80;82.95;102137.56;5009366;28;61260;-82
2023/05/25 06:34:50;;;;;;;;;10.00;7.00;;;;;16.81;83.29;102145.56;5014258;28;61547;-80
2023/05/25 06:37:16;;;;;;;;;10.00;9.00;;;;;16.82;83.54;102150.00;5012345;28;71794;-79
2023/05/25 06:39:42;;;;;;;;;10.67;7.00;;;;;16.87;83.53;102144.72;5014393;28;45443;-78
2023/05/25 06:42:08;;;;;;;;;8.33;8.33;;;;;16.89;83.53;102142.97;5014633;28;45442;-81
2023/05/25 06:44:33;;;;;;;;;13.67;9.00;;;;;16.94;83.19;102141.22;5010773;28;45474;-79
2023/05/25 06:46:59;;;;;;;;;11.00;8.00;;;;;16.96;83.36;102148.34;5009051;28;45800;-81
2023/05/25 06:49:24;;;;;;;;;9.00;9.00;;;;;16.96;83.26;102148.34;5010868;28;62458;-79
2023/05/25 06:51:50;;;;;;;;;12.00;11.00;;;;;17.01;83.66;102149.25;5013969;28;48939;-81
2023/05/25 06:54:15;;;;;;;;;16.00;9.00;;;;;17.05;83.21;102152.84;4996536;28;45514;-83
2023/05/25 06:56:41;;;;;;;;;11.00;8.00;;;;;17.08;83.17;102150.16;5014859;28;47428;-81
2023/05/25 06:59:06;;;;;;;;;9.33;8.00;;;;;17.11;83.22;102147.53;5006737;28;67564;-84
2023/05/25 07:01:31;;;;;;;;;10.00;9.00;;;;;17.17;83.13;102154.69;5001081;28;59873;-78
2023/05/25 07:03:57;;;;;;;;;13.00;8.00;;;;;17.20;82.88;102154.66;5011195;28;45581;-79
2023/05/25 07:06:22;;;;;;;;;14.33;10.00;;;;;17.24;82.90;102149.34;5010799;28;53875;-78
2023/05/25 07:08:47;;;;;;;;;10.67;9.00;;;;;17.26;82.90;102144.94;5022196;28;46610;-79
2023/05/25 07:11:13;;;;;;;;;9.33;9.00;;;;;17.32;82.93;102146.75;5020524;28;62707;-81
2023/05/25 07:13:39;;;;;;;;;11.33;9.33;;;;;17.35;82.21;102141.41;5003568;28;45347;-79
2023/05/25 07:16:04;;;;;;;;;7.67;7.00;;;;;17.39;82.19;102150.31;5017204;28;45563;-78
2023/05/25 07:18:30;;;;;;;;;8.00;7.67;;;;;17.41;82.03;102154.75;5006005;28;45476;-79
2023/05/25 07:20:55;;;;;;;;;9.00;9.00;;;;;17.45;81.88;102148.56;5007654;28;45572;-77
2023/05/25 07:23:21;;;;;;;;;8.00;8.00;;;;;17.48;82.04;102145.03;5006542;28;57191;-76
2023/05/25 07:25:46;;;;;;;;;13.00;8.33;;;;;17.51;81.99;102143.22;5011871;28;45751;-77
2023/05/25 07:28:12;;;;;;;;;8.00;8.00;;;;;17.55;81.77;102145.03;5014872;28;45445;-78
2023/05/25 07:30:37;;;;;;;;;10.00;8.33;;;;;17.59;81.44;102151.28;5006089;28;60759;-77
2023/05/25 07:33:02;;;;;;;;;11.67;9.00;;;;;17.60;81.49;102150.41;5011908;28;46806;-78
2023/05/25 07:35:28;;;;;;;;;9.67;9.00;;;;;17.63;81.57;102145.06;4992465;28;45803;-77
2023/05/25 07:38:06;;;;;;;;;5.67;5.67;;;;;17.66;81.17;102138.84;5008893;28;45443;-79
2023/05/25 07:40:31;;;;;;;;;10.67;7.00;;;;;17.69;81.08;102142.41;5009870;28;45503;-79
2023/05/25 07:42:56;;;;;;;;;7.33;7.33;;;;;17.71;80.73;102145.97;5009995;28;45226;-78
2023/05/25 07:45:22;;;;;;;;;10.00;7.33;;;;;17.74;80.34;102146.03;5008481;28;71703;-78
2023/05/25 07:47:47;;;;;;;;;13.67;12.00;;;;;17.76;80.19;102157.59;5014840;28;45242;-77
2023/05/25 07:50:13;;;;;;;;;11.00;8.00;;;;;17.80;79.67;102156.72;4994045;28;45487;-77
2023/05/25 07:52:39;;;;;;;;;6.67;6.67;;;;;17.84;79.49;102156.72;5014560;28;45443;-77
2023/05/25 07:55:07;;;;;;;;;9.00;6.00;;;;;17.87;78.98;102143.38;5017870;28;45996;-77
2023/05/25 07:57:33;;;;;;;;;6.33;5.00;;;;;17.92;79.10;102145.16;5019942;28;45428;-77
2023/05/25 07:59:59;;;;;;;;;8.00;5.00;;;;;17.94;78.92;102143.38;4997863;28;45408;-77
2023/05/25 08:02:24;;;;;;;;;6.33;6.33;;;;;17.99;78.69;102135.38;5016876;28;47397;-77
2023/05/25 08:04:50;;;;;;;;;6.33;5.00;;;;;18.02;78.00;102148.75;5016461;28;47208;-77
2023/05/25 08:07:18;;;;;;;;;11.00;5.67;;;;;18.10;77.75;102149.63;5015164;28;45500;-78
2023/05/25 08:09:43;;;;;;;;;5.33;4.00;;;;;18.14;77.20;102155.88;5005013;28;45376;-76
2023/05/25 08:12:08;;;;;;;;;5.33;4.00;;;;;18.20;76.54;102153.22;5016128;28;61616;-77
2023/05/25 08:14:34;;;;;;;;;5.00;4.00;;;;;18.25;75.82;102151.44;5010533;28;60133;-80
2023/05/25 08:16:59;;;;;;;;;6.00;5.00;;;;;18.29;75.48;102155.91;4995835;28;49022;-76
2023/05/25 08:19:24;;;;;;;;;8.00;5.00;;;;;18.31;75.25;102152.31;5013274;28;49396;-77
2023/05/25 08:21:50;;;;;;;;;5.33;3.67;;;;;18.36;74.79;102140.72;5010316;28;45582;-75
2023/05/25 08:24:15;;;;;;;;;4.67;2.67;;;;;18.40;74.29;102158.56;5014774;28;47238;-79
2023/05/25 08:26:42;;;;;;;;;4.33;3.00;;;;;18.44;73.47;102147.88;5005472;28;49107;-75
2023/05/25 08:29:07;;;;;;;;;4.33;4.33;;;;;18.47;73.68;102146.97;5015019;28;45901;-76
2023/05/25 08:31:33;;;;;;;;;6.00;4.00;;;;;18.52;72.39;102155.88;5000311;28;55643;-78
2023/05/25 08:33:59;;;;;;;;;6.33;3.00;;;;;18.54;72.44;102141.63;5010023;28;46635;-76
2023/05/25 08:36:25;;;;;;;;;4.00;4.00;;;;;18.60;71.74;102143.41;5002691;28;45508;-78
2023/05/25 08:38:50;;;;;;;;;4.00;4.00;;;;;18.64;71.97;102139.81;5009428;28;46463;-76
2023/05/25 08:41:16;;;;;;;;;4.67;4.00;;;;;18.71;71.75;102136.28;4979847;28;45640;-76
2023/05/25 08:43:41;;;;;;;;;5.00;4.00;;;;;18.73;71.58;102123.78;5007953;28;45733;-76
2023/05/25 08:46:08;;;;;;;;;4.00;4.00;;;;;18.79;71.00;102128.22;5009337;28;45455;-76
2023/05/25 08:48:35;;;;;;;;;4.33;4.33;;;;;18.84;71.46;102140.69;5006500;28;45480;-77
2023/05/25 08:51:07;;;;;;;;;5.33;4.00;;;;;18.92;70.35;102138.03;5010159;28;45561;-78
2023/05/25 08:53:35;;;;;;;;;3.67;3.67;;;;;18.96;69.21;102147.84;5008714;28;46780;-75
2023/05/25 08:56:17;;;;;;;;;7.00;4.33;;;;;19.01;70.04;102154.03;5015458;28;45476;-78
2023/05/25 08:58:45;;;;;;;;;4.00;4.00;;;;;19.07;69.48;102145.13;5010237;28;45428;-77
2023/05/25 09:01:13;;;;;;;;;4.00;4.00;;;;;19.13;68.67;102147.78;5011712;28;45355;-78
2023/05/25 09:03:39;;;;;;;;;6.33;2.67;;;;;19.18;68.64;102147.78;5015875;28;45996;-77
2023/05/25 09:06:04;;;;;;;;;8.33;4.67;;;;;19.23;68.20;102144.19;4979706;28;45459;-75
2023/05/25 09:08:30;;;;;;;;;4.00;4.00;;;;;19.27;67.79;102135.22;5013030;28;45568;-76
2023/05/25 09:10:56;;;;;;;;;3.00;3.00;;;;;19.33;68.56;102140.56;5015387;28;58445;-75
2023/05/25 09:13:22;;;;;;;;;5.67;2.00;;;;;19.40;67.48;102133.38;5010198;28;45649;-76
2023/05/25 09:15:48;;;;;;;;;3.67;2.67;;;;;19.44;67.15;102139.59;4997308;28;45608;-80
2023/05/25 09:18:13;;;;;;;;;3.33;3.33;;;;;19.50;66.71;102136.91;5009884;28;45379;-76
2023/05/25 09:20:38;;;;;;;;;3.67;3.67;;;;;19.53;66.37;102145.81;5003955;28;46231;-76
2023/05/25 09:23:04;;;;;;;;;2.00;2.00;;;;;19.57;66.07;102135.97;5014646;28;54165;-79
2023/05/25 09:25:30;;;;;;;;;3.33;3.33;;;;;19.60;64.53;102144.00;5009748;28;45357;-76
2023/05/25 09:27:57;;;;;;;;;4.67;2.67;;;;;19.64;64.18;102140.41;5014235;28;45391;-77
2023/05/25 09:30:23;;;;;;;;;3.67;3.67;;;;;19.67;63.99;102126.13;5013494;28;45301;-77
2023/05/25 09:32:50;;;;;;;;;4.00;2.67;;;;;19.69;62.96;102129.69;5008221;28;48037;-75
2023/05/25 09:35:15;;;;;;;;;4.33;2.67;;;;;19.73;63.03;102124.31;5012685;28;45470;-81
2023/05/25 09:37:42;;;;;;;;;3.67;3.67;;;;;19.79;63.94;102118.91;5012588;28;45610;-80
2023/05/25 09:40:09;;;;;;;;;2.00;2.00;;;;;19.84;62.87;102125.13;5013504;28;45507;-81
2023/05/25 09:42:35;;;;;;;;;7.67;7.67;;;;;19.88;63.79;102124.19;5008012;28;46738;-80
2023/05/25 09:45:01;;;;;;;;;3.33;2.00;;;;;19.92;63.60;102125.09;4989638;28;45502;-81
2023/05/25 09:47:30;;;;;;;;;6.33;4.33;;;;;19.97;63.57;102128.59;4994278;28;45463;-81
2023/05/25 09:49:56;;;;;;;;;4.00;3.00;;;;;20.01;63.00;102126.78;5008190;28;46879;-80
2023/05/25 09:52:22;;;;;;;;;3.67;2.00;;;;;20.03;62.94;102128.56;5004747;28;46382;-80
2023/05/25 09:54:48;;;;;;;;;3.00;3.00;;;;;20.07;62.28;102132.97;5014748;28;45431;-84
2023/05/25 09:57:20;;;;;;;;;4.00;4.00;;;;;20.11;61.98;102133.88;4992960;28;45463;-84
2023/05/25 09:59:46;;;;;;;;;6.67;6.00;;;;;20.16;61.86;102129.34;5011138;28;45622;-82
2023/05/25 10:02:12;;;;;;;;;8.00;5.00;;;;;20.20;61.56;102130.22;5007332;28;46621;-80
2023/05/25 10:04:37;;;;;;;;;11.67;11.00;;;;;20.27;61.59;102134.63;5013692;28;45342;-77
2023/05/25 10:07:04;;;;;;;;;8.67;6.00;;;;;20.31;62.23;102117.63;5010966;28;45585;-78
2023/05/25 10:09:30;;;;;;;;;3.67;3.67;;;;;20.39;61.62;102130.03;5006265;28;45491;-76
2023/05/25 10:11:56;;;;;;;;;4.00;2.00;;;;;20.44;61.08;102132.69;5005170;28;47306;-76
2023/05/25 10:14:26;;;;;;;;;4.00;2.00;;;;;20.51;60.46;102133.56;5011503;28;45419;-77
2023/05/25 10:16:54;;;;;;;;;14.00;13.00;;;;;20.58;60.30;102128.13;5007453;28;45405;-77
2023/05/25 10:19:54;;;;;;;;;70.00;49.75;;;;;20.64;59.56;102135.22;5007069;28;45534;-77
2023/05/25 10:22:35;;;;;;;;;23.00;21.33;;;;;20.69;59.22;102128.00;5011868;28;47224;-74
2023/05/25 10:25:26;;;;;;;;;26.67;23.33;;;;;20.77;58.52;102133.28;5008854;28;45498;-74
2023/05/25 10:28:05;;;;;;;;;37.50;27.00;;;;;20.83;58.90;102144.88;5011068;28;45509;-74
2023/05/25 10:30:31;;;;;;;;;10.00;7.33;;;;;20.88;58.69;102128.72;5007970;28;45452;-74
2023/05/25 10:32:56;;;;;;;;;9.67;7.00;;;;;20.95;59.01;102141.16;4991780;28;46222;-75
2023/05/25 10:35:22;;;;;;;;;3.33;2.00;;;;;21.01;58.30;102140.19;4992916;28;45344;-73
2023/05/25 10:37:51;;;;;;;;;6.33;3.00;;;;;21.07;57.84;102141.00;5007453;28;45439;-75
2023/05/25 10:40:17;;;;;;;;;2.33;2.33;;;;;21.11;56.98;102145.44;5010015;28;45249;-74
2023/05/25 10:42:44;;;;;;;;;3.00;3.00;;;;;21.13;56.61;102146.31;4991207;28;46550;-74
2023/05/25 10:45:09;;;;;;;;;4.00;3.00;;;;;21.17;56.31;102148.06;5011963;28;45405;-74
2023/05/25 10:47:37;;;;;;;;;2.00;2.00;;;;;21.19;55.75;102140.84;4991613;28;45556;-74
2023/05/25 10:50:03;;;;;;;;;2.67;2.67;;;;;21.24;55.51;102130.06;5011932;28;45470;-74
2023/05/25 10:52:30;;;;;;;;;4.67;3.00;;;;;21.29;55.83;102138.94;5015001;28;45653;-74
2023/05/25 10:54:56;;;;;;;;;5.00;2.33;;;;;21.36;56.05;102139.78;5014981;28;45348;-74
2023/05/25 10:57:23;;;;;;;;;5.00;4.00;;;;;21.43;56.57;102136.13;5010379;28;45585;-75
2023/05/25 10:59:54;;;;;;;;;3.33;3.33;;;;;21.50;56.09;102128.88;5011180;28;45572;-74
2023/05/25 11:02:23;;;;;;;;;5.00;3.00;;;;;21.57;56.70;102133.25;5013697;28;46591;-74
2023/05/25 11:04:49;;;;;;;;;3.33;2.33;;;;;21.62;56.06;102132.25;5001054;28;45482;-74
2023/05/25 11:07:17;;;;;;;;;5.33;3.00;;;;;21.69;56.05;102123.22;4998147;28;45635;-73
2023/05/25 11:09:44;;;;;;;;;5.67;3.00;;;;;21.76;56.26;102140.16;5012307;28;45655;-73
2023/05/25 11:12:21;;;;;;;;;4.00;3.00;;;;;21.80;56.24;102122.19;4998606;28;47399;-74
2023/05/25 11:15:10;;;;;;;;;19.67;14.67;;;;;21.87;55.70;102129.22;5001805;28;45468;-74
2023/05/25 11:17:56;;;;;;;;;23.33;19.33;;;;;21.92;55.55;102130.06;5006562;28;45296;-75
2023/05/25 11:20:22;;;;;;;;;14.00;13.33;;;;;21.99;56.39;102131.72;5005343;28;45512;-73